sensor_id;sensor_type;location;lat;lon;timestamp;pressure;altitude;pressure_sealevel;temperature
60003;BMP280;46322;52.018;8.702;2023-02-21T00:03:15;100449.38;;;19.77
60003;BMP280;46322;52.018;8.702;2023-02-21T00:08:15;100442.09;;;18.79
60003;BMP280;46322;52.018;8.702;2023-02-21T00:13:15;100455.84;;;20.52
60003;BMP280;46322;52.018;8.702;2023-02-21T00:18:15;100460.47;;;20.66
60003;BMP280;46322;52.018;8.702;2023-02-21T00:23:15;100457.38;;;18.75
60003;BMP280;46322;52.018;8.702;2023-02-21T00:28:16;100451.28;;;21.17
60003;BMP280;46322;52.018;8.702;2023-02-21T00:33:16;100452.03;;;21.03
60003;BMP280;46322;52.018;8.702;2023-02-21T00:38:16;100454.72;;;20.99
60003;BMP280;46322;52.018;8.702;2023-02-21T00:43:16;100450.13;;;19.74
60003;BMP280;46322;52.018;8.702;2023-02-21T00:48:20;100450.25;;;19.33
60003;BMP280;46322;52.018;8.702;2023-02-21T00:53:22;100445.44;;;20.40
60003;BMP280;46322;52.018;8.702;2023-02-21T00:58:22;100432.00;;;19.60
60003;BMP280;46322;52.018;8.702;2023-02-21T01:03:23;100421.44;;;18.49
60003;BMP280;46322;52.018;8.702;2023-02-21T01:08:23;100415.63;;;19.28
60003;BMP280;46322;52.018;8.702;2023-02-21T01:13:23;100416.16;;;18.60
60003;BMP280;46322;52.018;8.702;2023-02-21T01:18:23;100427.69;;;20.32
60003;BMP280;46322;52.018;8.702;2023-02-21T01:23:23;100432.66;;;19.43
60003;BMP280;46322;52.018;8.702;2023-02-21T01:28:23;100433.06;;;18.97
60003;BMP280;46322;52.018;8.702;2023-02-21T01:33:23;100441.28;;;20.82
60003;BMP280;46322;52.018;8.702;2023-02-21T01:38:24;100447.41;;;20.61
60003;BMP280;46322;52.018;8.702;2023-02-21T01:43:24;100445.38;;;20.22
60003;BMP280;46322;52.018;8.702;2023-02-21T01:48:25;100446.56;;;19.59
60003;BMP280;46322;52.018;8.702;2023-02-21T01:53:25;100439.13;;;18.91
60003;BMP280;46322;52.018;8.702;2023-02-21T01:58:26;100434.97;;;18.97
60003;BMP280;46322;52.018;8.702;2023-02-21T02:03:28;100441.59;;;18.36
60003;BMP280;46322;52.018;8.702;2023-02-21T02:08:30;100420.25;;;19.28
60003;BMP280;46322;52.018;8.702;2023-02-21T02:13:41;100429.06;;;19.28
60003;BMP280;46322;52.018;8.702;2023-02-21T02:19:34;100444.28;;;18.36
60003;BMP280;46322;52.018;8.702;2023-02-21T02:24:27;100435.03;;;19.55
60003;BMP280;46322;52.018;8.702;2023-02-21T02:39:49;100455.94;;;19.25
60003;BMP280;46322;52.018;8.702;2023-02-21T02:44:58;100443.47;;;19.06
60003;BMP280;46322;52.018;8.702;2023-02-21T02:49:59;100446.06;;;19.40
60003;BMP280;46322;52.018;8.702;2023-02-21T02:55:02;100438.97;;;20.98
60003;BMP280;46322;52.018;8.702;2023-02-21T03:00:03;100453.50;;;20.36
60003;BMP280;46322;52.018;8.702;2023-02-21T03:15:07;100459.56;;;20.12
60003;BMP280;46322;52.018;8.702;2023-02-21T03:20:10;100456.38;;;19.89
60003;BMP280;46322;52.018;8.702;2023-02-21T03:25:11;100473.81;;;19.07
60003;BMP280;46322;52.018;8.702;2023-02-21T03:30:12;100464.28;;;20.40
60003;BMP280;46322;52.018;8.702;2023-02-21T03:35:13;100485.31;;;19.04
60003;BMP280;46322;52.018;8.702;2023-02-21T03:40:17;100485.78;;;20.36
60003;BMP280;46322;52.018;8.702;2023-02-21T03:45:17;100483.31;;;19.38
60003;BMP280;46322;52.018;8.702;2023-02-21T03:50:17;100476.03;;;19.01
60003;BMP280;46322;52.018;8.702;2023-02-21T03:55:18;100477.94;;;19.41
60003;BMP280;46322;52.018;8.702;2023-02-21T04:00:18;100463.44;;;19.49
60003;BMP280;46322;52.018;8.702;2023-02-21T04:05:19;100457.72;;;20.37
60003;BMP280;46322;52.018;8.702;2023-02-21T04:10:19;100455.38;;;20.32
60003;BMP280;46322;52.018;8.702;2023-02-21T04:15:19;100459.03;;;19.85
60003;BMP280;46322;52.018;8.702;2023-02-21T04:20:19;100457.69;;;19.07
60003;BMP280;46322;52.018;8.702;2023-02-21T04:25:19;100444.34;;;19.72
60003;BMP280;46322;52.018;8.702;2023-02-21T04:30:19;100455.78;;;18.33
60003;BMP280;46322;52.018;8.702;2023-02-21T04:35:19;100436.63;;;19.60
60003;BMP280;46322;52.018;8.702;2023-02-21T04:40:20;100447.88;;;19.25
60003;BMP280;46322;52.018;8.702;2023-02-21T04:45:20;100449.53;;;20.09
60003;BMP280;46322;52.018;8.702;2023-02-21T04:50:20;100445.13;;;19.18
60003;BMP280;46322;52.018;8.702;2023-02-21T04:55:20;100433.78;;;19.39
60003;BMP280;46322;52.018;8.702;2023-02-21T05:00:20;100433.22;;;18.75
60003;BMP280;46322;52.018;8.702;2023-02-21T05:05:20;100428.69;;;19.88
60003;BMP280;46322;52.018;8.702;2023-02-21T05:10:21;100421.47;;;19.41
60003;BMP280;46322;52.018;8.702;2023-02-21T05:15:21;100419.22;;;18.95
60003;BMP280;46322;52.018;8.702;2023-02-21T05:20:21;100418.00;;;18.89
60003;BMP280;46322;52.018;8.702;2023-02-21T05:25:22;100424.72;;;21.11
60003;BMP280;46322;52.018;8.702;2023-02-21T05:30:22;100427.00;;;20.63
60003;BMP280;46322;52.018;8.702;2023-02-21T05:35:22;100421.59;;;19.59
60003;BMP280;46322;52.018;8.702;2023-02-21T05:40:23;100409.59;;;19.46
60003;BMP280;46322;52.018;8.702;2023-02-21T05:45:23;100409.75;;;19.67
60003;BMP280;46322;52.018;8.702;2023-02-21T05:50:23;100417.78;;;19.63
60003;BMP280;46322;52.018;8.702;2023-02-21T05:55:23;100407.97;;;19.92
60003;BMP280;46322;52.018;8.702;2023-02-21T06:00:25;100412.09;;;19.72
60003;BMP280;46322;52.018;8.702;2023-02-21T06:05:26;100420.19;;;19.76
60003;BMP280;46322;52.018;8.702;2023-02-21T06:10:26;100423.13;;;20.39
60003;BMP280;46322;52.018;8.702;2023-02-21T06:15:26;100441.91;;;18.64
60003;BMP280;46322;52.018;8.702;2023-02-21T06:20:26;100414.84;;;19.93
60003;BMP280;46322;52.018;8.702;2023-02-21T06:25:26;100422.22;;;20.03
60003;BMP280;46322;52.018;8.702;2023-02-21T06:30:26;100424.81;;;19.20
60003;BMP280;46322;52.018;8.702;2023-02-21T06:35:27;100427.38;;;20.51
60003;BMP280;46322;52.018;8.702;2023-02-21T06:40:27;100430.41;;;19.49
60003;BMP280;46322;52.018;8.702;2023-02-21T06:45:27;100439.66;;;19.58
60003;BMP280;46322;52.018;8.702;2023-02-21T06:50:27;100436.78;;;19.30
60003;BMP280;46322;52.018;8.702;2023-02-21T06:55:27;100448.09;;;20.33
60003;BMP280;46322;52.018;8.702;2023-02-21T07:00:27;100445.44;;;20.44
60003;BMP280;46322;52.018;8.702;2023-02-21T07:05:27;100453.81;;;20.21
60003;BMP280;46322;52.018;8.702;2023-02-21T07:10:28;100452.47;;;19.76
60003;BMP280;46322;52.018;8.702;2023-02-21T07:15:28;100462.38;;;19.17
60003;BMP280;46322;52.018;8.702;2023-02-21T07:20:28;100451.47;;;20.16
60003;BMP280;46322;52.018;8.702;2023-02-21T07:25:28;100465.78;;;19.58
60003;BMP280;46322;52.018;8.702;2023-02-21T07:30:29;100463.47;;;20.25
60003;BMP280;46322;52.018;8.702;2023-02-21T07:35:29;100471.19;;;20.30
60003;BMP280;46322;52.018;8.702;2023-02-21T07:40:29;100472.81;;;20.99
60003;BMP280;46322;52.018;8.702;2023-02-21T07:45:29;100478.38;;;20.09
60003;BMP280;46322;52.018;8.702;2023-02-21T07:50:29;100482.72;;;20.38
60003;BMP280;46322;52.018;8.702;2023-02-21T07:55:29;100483.97;;;20.87
60003;BMP280;46322;52.018;8.702;2023-02-21T08:00:30;100489.59;;;19.12
60003;BMP280;46322;52.018;8.702;2023-02-21T08:05:30;100488.13;;;19.69
60003;BMP280;46322;52.018;8.702;2023-02-21T08:10:30;100489.94;;;20.20
60003;BMP280;46322;52.018;8.702;2023-02-21T08:15:30;100496.31;;;20.73
60003;BMP280;46322;52.018;8.702;2023-02-21T08:20:31;100500.59;;;19.40
60003;BMP280;46322;52.018;8.702;2023-02-21T08:25:31;100492.38;;;20.42
60003;BMP280;46322;52.018;8.702;2023-02-21T08:30:31;100507.31;;;19.60
60003;BMP280;46322;52.018;8.702;2023-02-21T08:35:31;100505.56;;;19.89
60003;BMP280;46322;52.018;8.702;2023-02-21T08:40:31;100508.41;;;20.21
60003;BMP280;46322;52.018;8.702;2023-02-21T08:45:31;100507.09;;;20.77
60003;BMP280;46322;52.018;8.702;2023-02-21T08:50:32;100507.00;;;19.76
60003;BMP280;46322;52.018;8.702;2023-02-21T08:55:32;100515.69;;;19.55
60003;BMP280;46322;52.018;8.702;2023-02-21T09:00:32;100511.31;;;20.78
60003;BMP280;46322;52.018;8.702;2023-02-21T09:05:32;100505.88;;;20.57
60003;BMP280;46322;52.018;8.702;2023-02-21T09:10:32;100510.56;;;21.45
60003;BMP280;46322;52.018;8.702;2023-02-21T09:15:32;100508.25;;;21.40
60003;BMP280;46322;52.018;8.702;2023-02-21T09:20:33;100512.72;;;19.20
60003;BMP280;46322;52.018;8.702;2023-02-21T09:25:33;100505.47;;;19.75
60003;BMP280;46322;52.018;8.702;2023-02-21T09:30:33;100514.00;;;20.78
60003;BMP280;46322;52.018;8.702;2023-02-21T09:35:33;100523.59;;;20.61
60003;BMP280;46322;52.018;8.702;2023-02-21T09:45:34;100510.38;;;22.23
60003;BMP280;46322;52.018;8.702;2023-02-21T09:50:38;100520.88;;;21.96
60003;BMP280;46322;52.018;8.702;2023-02-21T09:55:39;100513.22;;;21.80
60003;BMP280;46322;52.018;8.702;2023-02-21T10:00:40;100517.53;;;21.07
60003;BMP280;46322;52.018;8.702;2023-02-21T10:05:47;100530.25;;;21.42
60003;BMP280;46322;52.018;8.702;2023-02-21T10:10:54;100526.00;;;21.20
60003;BMP280;46322;52.018;8.702;2023-02-21T10:16:03;100520.97;;;21.57
60003;BMP280;46322;52.018;8.702;2023-02-21T10:21:16;100525.25;;;21.47
60003;BMP280;46322;52.018;8.702;2023-02-21T10:26:24;100522.53;;;21.58
60003;BMP280;46322;52.018;8.702;2023-02-21T10:31:35;100529.47;;;21.06
60003;BMP280;46322;52.018;8.702;2023-02-21T10:36:35;100526.75;;;21.45
60003;BMP280;46322;52.018;8.702;2023-02-21T10:41:36;100526.78;;;21.06
60003;BMP280;46322;52.018;8.702;2023-02-21T10:46:45;100530.06;;;20.46
60003;BMP280;46322;52.018;8.702;2023-02-21T10:51:46;100532.47;;;19.38
60003;BMP280;46322;52.018;8.702;2023-02-21T10:56:47;100532.94;;;21.31
60003;BMP280;46322;52.018;8.702;2023-02-21T11:01:48;100527.13;;;22.70
60003;BMP280;46322;52.018;8.702;2023-02-21T11:06:49;100521.75;;;21.61
60003;BMP280;46322;52.018;8.702;2023-02-21T11:11:58;100520.59;;;21.12
60003;BMP280;46322;52.018;8.702;2023-02-21T11:22:14;100516.38;;;22.55
60003;BMP280;46322;52.018;8.702;2023-02-21T11:27:15;100515.72;;;22.41
60003;BMP280;46322;52.018;8.702;2023-02-21T11:32:21;100519.38;;;20.67
60003;BMP280;46322;52.018;8.702;2023-02-21T11:37:22;100512.50;;;21.20
60003;BMP280;46322;52.018;8.702;2023-02-21T11:42:25;100509.97;;;23.39
60003;BMP280;46322;52.018;8.702;2023-02-21T11:47:27;100518.31;;;22.55
60003;BMP280;46322;52.018;8.702;2023-02-21T11:53:03;100509.66;;;20.38
60003;BMP280;46322;52.018;8.702;2023-02-21T12:03:29;100504.97;;;22.27
60003;BMP280;46322;52.018;8.702;2023-02-21T12:18:40;100500.97;;;21.58
60003;BMP280;46322;52.018;8.702;2023-02-21T12:23:56;100499.38;;;21.68
60003;BMP280;46322;52.018;8.702;2023-02-21T12:29:01;100498.25;;;21.05
60003;BMP280;46322;52.018;8.702;2023-02-21T12:44:23;100483.97;;;20.65
60003;BMP280;46322;52.018;8.702;2023-02-21T12:54:42;100476.88;;;22.13
60003;BMP280;46322;52.018;8.702;2023-02-21T13:04:49;100474.69;;;22.64
60003;BMP280;46322;52.018;8.702;2023-02-21T13:15:22;100459.97;;;20.28
60003;BMP280;46322;52.018;8.702;2023-02-21T13:20:53;100463.19;;;21.40
60003;BMP280;46322;52.018;8.702;2023-02-21T13:31:03;100456.97;;;21.68
60003;BMP280;46322;52.018;8.702;2023-02-21T13:41:19;100445.41;;;21.78
60003;BMP280;46322;52.018;8.702;2023-02-21T13:51:47;100442.44;;;21.12
60003;BMP280;46322;52.018;8.702;2023-02-21T13:56:48;100430.75;;;23.72
60003;BMP280;46322;52.018;8.702;2023-02-21T14:01:49;100441.19;;;21.70
60003;BMP280;46322;52.018;8.702;2023-02-21T14:06:54;100435.81;;;20.46
60003;BMP280;46322;52.018;8.702;2023-02-21T14:12:01;100437.34;;;21.71
60003;BMP280;46322;52.018;8.702;2023-02-21T14:17:08;100433.13;;;20.39
60003;BMP280;46322;52.018;8.702;2023-02-21T14:22:20;100432.78;;;21.26
60003;BMP280;46322;52.018;8.702;2023-02-21T14:32:46;100431.13;;;21.74
60003;BMP280;46322;52.018;8.702;2023-02-21T14:38:23;100427.41;;;20.72
60003;BMP280;46322;52.018;8.702;2023-02-21T15:04:42;100420.19;;;22.69
60003;BMP280;46322;52.018;8.702;2023-02-21T15:10:04;100421.84;;;21.86
60003;BMP280;46322;52.018;8.702;2023-02-21T15:15:10;100412.69;;;21.66
60003;BMP280;46322;52.018;8.702;2023-02-21T15:20:17;100415.81;;;21.46
60003;BMP280;46322;52.018;8.702;2023-02-21T15:25:18;100418.94;;;21.24
60003;BMP280;46322;52.018;8.702;2023-02-21T15:30:38;100424.72;;;20.83
60003;BMP280;46322;52.018;8.702;2023-02-21T15:35:43;100422.78;;;21.26
60003;BMP280;46322;52.018;8.702;2023-02-21T15:40:46;100424.25;;;20.35
60003;BMP280;46322;52.018;8.702;2023-02-21T15:45:48;100421.16;;;20.29
60003;BMP280;46322;52.018;8.702;2023-02-21T15:50:48;100423.19;;;20.71
60003;BMP280;46322;52.018;8.702;2023-02-21T15:55:51;100418.31;;;19.83
60003;BMP280;46322;52.018;8.702;2023-02-21T16:01:08;100430.09;;;21.08
60003;BMP280;46322;52.018;8.702;2023-02-21T16:06:24;100418.50;;;20.36
60003;BMP280;46322;52.018;8.702;2023-02-21T16:11:37;100416.75;;;19.86
60003;BMP280;46322;52.018;8.702;2023-02-21T16:16:38;100429.41;;;19.78
60003;BMP280;46322;52.018;8.702;2023-02-21T16:21:38;100418.50;;;21.54
60003;BMP280;46322;52.018;8.702;2023-02-21T16:26:38;100414.47;;;22.01
60003;BMP280;46322;52.018;8.702;2023-02-21T16:31:38;100423.50;;;20.41
60003;BMP280;46322;52.018;8.702;2023-02-21T16:36:40;100427.41;;;20.80
60003;BMP280;46322;52.018;8.702;2023-02-21T16:41:40;100422.41;;;21.21
60003;BMP280;46322;52.018;8.702;2023-02-21T16:46:42;100422.03;;;21.19
60003;BMP280;46322;52.018;8.702;2023-02-21T16:51:42;100420.09;;;20.73
60003;BMP280;46322;52.018;8.702;2023-02-21T16:56:44;100418.53;;;20.47
60003;BMP280;46322;52.018;8.702;2023-02-21T17:01:45;100426.88;;;20.10
60003;BMP280;46322;52.018;8.702;2023-02-21T17:06:58;100425.44;;;18.66
60003;BMP280;46322;52.018;8.702;2023-02-21T17:11:59;100423.56;;;20.88
60003;BMP280;46322;52.018;8.702;2023-02-21T17:16:59;100426.63;;;21.25
60003;BMP280;46322;52.018;8.702;2023-02-21T17:22:00;100429.84;;;19.94
60003;BMP280;46322;52.018;8.702;2023-02-21T17:27:00;100430.47;;;20.64
60003;BMP280;46322;52.018;8.702;2023-02-21T17:32:00;100440.38;;;21.73
60003;BMP280;46322;52.018;8.702;2023-02-21T17:37:01;100442.78;;;21.36
60003;BMP280;46322;52.018;8.702;2023-02-21T17:42:02;100441.03;;;19.93
60003;BMP280;46322;52.018;8.702;2023-02-21T17:47:03;100433.88;;;20.39
60003;BMP280;46322;52.018;8.702;2023-02-21T17:52:03;100440.03;;;21.57
60003;BMP280;46322;52.018;8.702;2023-02-21T17:57:04;100436.91;;;21.73
60003;BMP280;46322;52.018;8.702;2023-02-21T18:02:04;100441.66;;;21.23
60003;BMP280;46322;52.018;8.702;2023-02-21T18:07:04;100435.16;;;22.29
60003;BMP280;46322;52.018;8.702;2023-02-21T18:12:04;100437.03;;;20.88
60003;BMP280;46322;52.018;8.702;2023-02-21T18:17:05;100440.28;;;22.68
60003;BMP280;46322;52.018;8.702;2023-02-21T18:22:05;100442.44;;;21.12
60003;BMP280;46322;52.018;8.702;2023-02-21T18:27:05;100441.25;;;21.17
60003;BMP280;46322;52.018;8.702;2023-02-21T18:32:05;100439.06;;;22.17
60003;BMP280;46322;52.018;8.702;2023-02-21T18:37:06;100437.66;;;23.05
60003;BMP280;46322;52.018;8.702;2023-02-21T18:42:06;100442.31;;;21.73
60003;BMP280;46322;52.018;8.702;2023-02-21T18:47:06;100441.84;;;23.51
60003;BMP280;46322;52.018;8.702;2023-02-21T18:52:06;100444.19;;;21.87
60003;BMP280;46322;52.018;8.702;2023-02-21T18:57:07;100440.00;;;23.00
60003;BMP280;46322;52.018;8.702;2023-02-21T19:02:10;100442.00;;;21.53
60003;BMP280;46322;52.018;8.702;2023-02-21T19:07:13;100438.56;;;20.60
60003;BMP280;46322;52.018;8.702;2023-02-21T19:12:13;100431.03;;;22.06
60003;BMP280;46322;52.018;8.702;2023-02-21T19:17:14;100438.41;;;21.88
60003;BMP280;46322;52.018;8.702;2023-02-21T19:22:14;100426.41;;;21.96
60003;BMP280;46322;52.018;8.702;2023-02-21T19:27:14;100429.88;;;21.97
60003;BMP280;46322;52.018;8.702;2023-02-21T19:32:14;100434.97;;;20.28
60003;BMP280;46322;52.018;8.702;2023-02-21T19:37:15;100422.22;;;20.03
60003;BMP280;46322;52.018;8.702;2023-02-21T19:42:15;100426.91;;;21.77
60003;BMP280;46322;52.018;8.702;2023-02-21T19:47:15;100425.50;;;22.24
60003;BMP280;46322;52.018;8.702;2023-02-21T19:52:15;100427.69;;;21.67
60003;BMP280;46322;52.018;8.702;2023-02-21T19:57:15;100423.19;;;20.96
60003;BMP280;46322;52.018;8.702;2023-02-21T20:02:16;100414.97;;;20.22
60003;BMP280;46322;52.018;8.702;2023-02-21T20:07:16;100428.94;;;20.66
60003;BMP280;46322;52.018;8.702;2023-02-21T20:12:16;100417.72;;;22.40
60003;BMP280;46322;52.018;8.702;2023-02-21T20:17:16;100421.16;;;21.71
60003;BMP280;46322;52.018;8.702;2023-02-21T20:22:17;100407.63;;;21.75
60003;BMP280;46322;52.018;8.702;2023-02-21T20:27:17;100406.47;;;22.45
60003;BMP280;46322;52.018;8.702;2023-02-21T20:32:17;100408.09;;;21.59
60003;BMP280;46322;52.018;8.702;2023-02-21T20:37:18;100414.31;;;22.29
60003;BMP280;46322;52.018;8.702;2023-02-21T20:42:19;100414.69;;;20.66
60003;BMP280;46322;52.018;8.702;2023-02-21T20:47:19;100412.28;;;21.57
60003;BMP280;46322;52.018;8.702;2023-02-21T20:52:20;100410.00;;;21.48
60003;BMP280;46322;52.018;8.702;2023-02-21T20:57:20;100412.00;;;20.87
60003;BMP280;46322;52.018;8.702;2023-02-21T21:02:20;100407.75;;;20.47
60003;BMP280;46322;52.018;8.702;2023-02-21T21:07:21;100410.25;;;19.90
60003;BMP280;46322;52.018;8.702;2023-02-21T21:12:22;100401.66;;;20.82
60003;BMP280;46322;52.018;8.702;2023-02-21T21:17:22;100408.56;;;20.97
60003;BMP280;46322;52.018;8.702;2023-02-21T21:22:25;100397.00;;;21.07
60003;BMP280;46322;52.018;8.702;2023-02-21T21:27:26;100395.78;;;20.27
60003;BMP280;46322;52.018;8.702;2023-02-21T21:32:27;100390.72;;;20.00
60003;BMP280;46322;52.018;8.702;2023-02-21T21:37:29;100387.16;;;19.82
60003;BMP280;46322;52.018;8.702;2023-02-21T21:42:29;100384.97;;;20.16
60003;BMP280;46322;52.018;8.702;2023-02-21T21:47:30;100379.47;;;19.15
60003;BMP280;46322;52.018;8.702;2023-02-21T21:52:31;100382.00;;;20.96
60003;BMP280;46322;52.018;8.702;2023-02-21T21:57:31;100374.31;;;20.73
60003;BMP280;46322;52.018;8.702;2023-02-21T22:02:32;100368.91;;;20.55
60003;BMP280;46322;52.018;8.702;2023-02-21T22:07:32;100364.97;;;20.10
60003;BMP280;46322;52.018;8.702;2023-02-21T22:12:32;100360.16;;;19.57
60003;BMP280;46322;52.018;8.702;2023-02-21T22:17:32;100359.66;;;20.92
60003;BMP280;46322;52.018;8.702;2023-02-21T22:22:33;100360.53;;;19.63
60003;BMP280;46322;52.018;8.702;2023-02-21T22:27:33;100357.91;;;19.66
60003;BMP280;46322;52.018;8.702;2023-02-21T22:32:34;100345.88;;;19.50
60003;BMP280;46322;52.018;8.702;2023-02-21T22:37:34;100352.31;;;20.28
60003;BMP280;46322;52.018;8.702;2023-02-21T22:42:34;100342.56;;;19.78
60003;BMP280;46322;52.018;8.702;2023-02-21T22:47:35;100336.59;;;20.55
60003;BMP280;46322;52.018;8.702;2023-02-21T22:52:35;100340.41;;;20.97
60003;BMP280;46322;52.018;8.702;2023-02-21T22:57:35;100329.66;;;20.47
60003;BMP280;46322;52.018;8.702;2023-02-21T23:02:35;100320.19;;;19.63
60003;BMP280;46322;52.018;8.702;2023-02-21T23:07:36;100312.72;;;20.68
60003;BMP280;46322;52.018;8.702;2023-02-21T23:12:36;100310.44;;;20.77
60003;BMP280;46322;52.018;8.702;2023-02-21T23:17:36;100301.97;;;20.43
60003;BMP280;46322;52.018;8.702;2023-02-21T23:22:37;100294.38;;;19.37
60003;BMP280;46322;52.018;8.702;2023-02-21T23:27:37;100291.56;;;20.24
60003;BMP280;46322;52.018;8.702;2023-02-21T23:32:37;100269.50;;;21.25
60003;BMP280;46322;52.018;8.702;2023-02-21T23:37:38;100275.00;;;20.64
60003;BMP280;46322;52.018;8.702;2023-02-21T23:42:38;100271.50;;;21.06
60003;BMP280;46322;52.018;8.702;2023-02-21T23:47:41;100265.78;;;20.16
60003;BMP280;46322;52.018;8.702;2023-02-21T23:52:46;100267.31;;;21.75
60003;BMP280;46322;52.018;8.702;2023-02-21T23:57:46;100257.09;;;21.41
